Time;durP1;ratioP1;P1;durP2;ratioP2;P2;SDS_P1;SDS_P2;PMS_P1;PMS_P2;Temp;Humidity;BMP_temperature;BMP_pressure;BME280_temperature;BME280_humidity;BME280_pressure;Samples;Min_cycle;Max_cycle;Signal;HPM_P1;HPM_P2
2022/06/11 00:00:59;;;;;;;12.35;6.82;;;;;;;14.49;92.46;101887.88;5013036;28;20100;-83
2022/06/11 00:03:31;;;;;;;10.18;6.88;;;;;;;15.44;92.41;102059.59;5013026;28;20408;-83
2022/06/11 00:06:15;;;;;;;10.98;7.05;;;;;;;14.60;92.12;101939.19;5012985;28;20500;-83
2022/06/11 00:08:47;;;;;;;10.55;6.72;;;;;;;14.94;92.36;101995.13;5013059;28;20469;-83
2022/06/11 00:11:13;;;;;;;12.75;7.40;;;;;;;15.56;92.74;102097.03;5012732;28;20037;-83
2022/06/11 00:13:41;;;;;;;10.40;6.55;;;;;;;15.52;92.79;102102.50;5012592;28;20026;-83
2022/06/11 00:16:08;;;;;;;13.13;7.05;;;;;;;15.31;92.91;102068.28;5012700;28;20026;-88
2022/06/11 00:18:35;;;;;;;11.13;6.70;;;;;;;15.28;92.94;102065.88;5012570;28;20022;-88
2022/06/11 00:21:00;;;;;;;10.52;6.88;;;;;;;15.45;92.94;102095.13;5013055;28;20034;-88
2022/06/11 00:23:26;;;;;;;10.80;6.75;;;;;;;15.23;92.58;102060.94;5012772;28;20030;-88
2022/06/11 00:25:52;;;;;;;10.82;7.15;;;;;;;15.31;93.23;102073.47;5012991;28;20113;-88
2022/06/11 00:28:18;;;;;;;10.25;6.65;;;;;;;15.08;93.12;102047.13;5012683;28;20445;-88
2022/06/11 00:30:43;;;;;;;11.77;7.45;;;;;;;15.32;93.09;102091.59;4995792;28;20025;-89
2022/06/11 00:33:09;;;;;;;10.70;6.57;;;;;;;15.07;93.30;102052.44;5013034;28;20037;-87
2022/06/11 00:35:37;;;;;;;9.68;6.53;;;;;;;15.12;93.56;102072.03;5012887;28;20029;-88
2022/06/11 00:38:03;;;;;;;9.85;6.57;;;;;;;14.92;93.91;102036.84;5012627;28;20463;-89
2022/06/11 00:40:31;;;;;;;10.40;6.93;;;;;;;14.95;94.24;102046.25;5012741;28;20095;-88
2022/06/11 00:42:56;;;;;;;12.25;7.28;;;;;;;15.14;94.40;102087.53;5012226;28;20045;-88
2022/06/11 00:45:29;;;;;;;11.95;6.80;;;;;;;14.92;94.07;102046.41;4994386;28;20042;-88
2022/06/11 00:48:32;;;;;;;12.38;6.88;;;;;;;14.99;94.06;102065.91;5012252;28;20477;-88
2022/06/11 00:51:22;;;;;;;11.25;7.57;;;;;;;14.51;94.49;102008.19;4913739;29;20040;-84
2022/06/11 00:53:55;;;;;;;13.40;7.18;;;;;;;14.78;94.68;102049.03;4913838;29;20453;-86
2022/06/11 00:56:25;;;;;;;10.60;7.18;;;;;;;14.93;94.99;102084.50;4914002;29;20115;-88
2022/06/11 00:58:53;;;;;;;10.52;7.45;;;;;;;14.69;95.38;102050.44;4913890;29;20044;-88
2022/06/11 01:01:22;;;;;;;11.02;7.10;;;;;;;14.85;95.83;102077.19;4914942;29;20454;-85
2022/06/11 01:03:50;;;;;;;10.73;6.80;;;;;;;14.86;96.03;102080.63;4917455;29;20434;-88
2022/06/11 01:06:32;;;;;;;12.90;7.32;;;;;;;14.79;95.39;102061.94;4917384;29;20044;-87
2022/06/11 01:09:29;;;;;;;12.10;6.90;;;;;;;14.85;95.46;102077.19;4917282;29;20100;-84
2022/06/11 01:12:31;;;;;;;10.57;7.20;;;;;;;14.75;95.35;102065.66;4917324;29;20038;-87
2022/06/11 01:15:23;;;;;;;10.05;6.68;;;;;;;14.50;95.63;102034.28;4879663;29;20140;-89
2022/06/11 01:18:30;;;;;;;11.55;7.32;;;;;;;14.74;95.94;102078.72;4952689;23;20054;-87
2022/06/11 01:21:40;;;;;;;9.75;6.63;;;;;;;14.12;95.68;101972.41;5015816;28;20026;-87
2022/06/11 01:27:41;;;;;;;10.15;7.00;;;;;;;14.69;96.16;102080.78;5015699;28;20075;-88
2022/06/11 01:30:52;;;;;;;12.75;7.13;;;;;;;13.23;96.55;101849.59;5015462;28;20347;-88
2022/06/11 01:33:56;;;;;;;13.95;7.60;;;;;;;14.09;96.68;101992.53;5015309;28;20112;-88
2022/06/11 01:36:27;;;;;;;11.93;7.13;;;;;;;13.39;96.90;101886.72;5015199;28;20030;-87
2022/06/11 01:39:04;;;;;;;11.15;7.45;;;;;;;14.19;97.49;102011.84;5015302;28;20036;-87
2022/06/11 01:41:44;;;;;;;9.55;7.07;;;;;;;14.58;97.61;102081.44;5014903;28;20038;-86
2022/06/11 01:44:20;;;;;;;14.10;7.75;;;;;;;14.48;97.78;102064.72;5015095;28;20049;-88
2022/06/11 01:46:48;;;;;;;11.13;7.50;;;;;;;14.59;97.68;102077.91;5015045;28;20037;-88
2022/06/11 01:49:19;;;;;;;11.00;7.85;;;;;;;14.57;97.83;102074.56;5015053;28;20034;-86
2022/06/11 01:51:54;;;;;;;11.07;7.28;;;;;;;14.50;97.79;102068.91;5015094;28;20532;-89
2022/06/11 01:54:55;;;;;;;13.60;8.77;;;;;;;14.41;98.05;102055.56;5015035;28;20034;-87
2022/06/11 01:57:29;;;;;;;12.75;8.07;;;;;;;14.49;98.51;102074.19;4915943;29;20047;-88
2022/06/11 02:00:14;;;;;;;12.90;6.93;;;;;;;14.43;97.82;102069.31;4916677;29;20067;-89
2022/06/11 02:02:51;;;;;;;11.48;7.57;;;;;;;14.42;98.28;102073.69;4916231;29;20427;-87
2022/06/11 02:05:32;;;;;;;11.23;7.95;;;;;;;14.27;98.41;102052.03;4916458;29;20072;-89
2022/06/11 02:08:26;;;;;;;12.27;7.27;;;;;;;14.34;98.28;102068.91;4916452;29;20100;-86
2022/06/11 02:11:05;;;;;;;12.40;7.32;;;;;;;14.20;98.70;102048.13;4916280;29;20088;-86
2022/06/11 02:13:41;;;;;;;12.18;7.55;;;;;;;14.07;98.72;102042.81;4914907;29;20079;-89
2022/06/11 02:16:28;;;;;;;12.77;7.95;;;;;;;14.32;98.94;102077.75;4900116;29;20135;-89
2022/06/11 02:19:00;;;;;;;11.43;7.18;;;;;;;13.92;99.16;102024.69;4915995;29;20052;-87
2022/06/11 02:21:32;;;;;;;11.00;7.90;;;;;;;14.03;99.30;102040.47;4916262;29;20032;-88
2022/06/11 02:24:13;;;;;;;11.68;7.35;;;;;;;13.97;99.38;102033.91;4916081;29;20031;-88
2022/06/11 02:26:43;;;;;;;12.20;8.07;;;;;;;14.27;99.96;102078.03;4915676;29;20056;-89
2022/06/11 02:29:12;;;;;;;11.88;8.27;;;;;;;14.14;99.65;102060.63;4971563;23;20483;-86
2022/06/11 02:31:46;;;;;;;12.35;8.70;;;;;;;14.14;99.80;102060.63;4994814;28;20089;-87
2022/06/11 02:34:14;;;;;;;12.57;8.80;;;;;;;14.07;99.67;102049.78;4994627;28;20085;-88
2022/06/11 02:36:47;;;;;;;13.82;8.57;;;;;;;14.04;99.81;102058.56;4994641;28;20031;-88
2022/06/11 02:39:13;;;;;;;14.75;8.60;;;;;;;13.86;99.78;102051.00;4994395;28;20034;-83
2022/06/11 02:41:38;;;;;;;12.82;8.45;;;;;;;13.82;99.88;102059.91;4994430;28;20077;-82
2022/06/11 02:44:03;;;;;;;14.65;8.10;;;;;;;13.78;100.00;102051.44;4994315;28;20034;-82
2022/06/11 02:46:41;;;;;;;14.77;8.32;;;;;;;14.00;100.00;102093.44;4994753;28;20030;-82
2022/06/11 02:49:09;;;;;;;11.50;8.40;;;;;;;13.93;100.00;102092.09;4978700;28;20097;-82
2022/06/11 02:51:35;;;;;;;12.65;8.88;;;;;;;13.93;100.00;102097.31;4994130;28;20057;-81
2022/06/11 02:54:00;;;;;;;12.77;8.25;;;;;;;13.76;100.00;102074.91;4994233;28;20034;-83
2022/06/11 02:56:26;;;;;;;10.80;8.38;;;;;;;13.90;100.00;102100.09;4976796;28;20485;-82
2022/06/11 02:58:51;;;;;;;11.95;8.57;;;;;;;13.69;100.00;102073.56;4993893;28;20425;-82
2022/06/11 03:01:18;;;;;;;13.75;8.70;;;;;;;13.41;100.00;102031.91;4976862;28;20022;-82
2022/06/11 03:03:44;;;;;;;12.65;8.55;;;;;;;13.83;100.00;102103.09;4994257;28;20378;-82
2022/06/11 03:06:09;;;;;;;11.57;8.27;;;;;;;13.59;100.00;102067.22;4994033;28;20037;-82
2022/06/11 03:08:36;;;;;;;14.20;9.07;;;;;;;13.86;100.00;102114.16;4993988;28;20056;-82
2022/06/11 03:11:01;;;;;;;13.27;7.97;;;;;;;13.80;100.00;102105.88;4994137;28;20026;-82
2022/06/11 03:13:28;;;;;;;11.15;8.43;;;;;;;13.80;100.00;102109.31;4993860;28;20037;-81
2022/06/11 03:15:54;;;;;;;11.48;8.32;;;;;;;13.55;100.00;102080.44;4994054;28;20069;-82
2022/06/11 03:18:22;;;;;;;13.70;7.60;;;;;;;13.80;100.00;102114.50;4993674;28;20034;-81
2022/06/11 03:20:50;;;;;;;12.05;7.38;;;;;;;13.80;100.00;102116.28;4993917;28;20433;-82
2022/06/11 03:23:19;;;;;;;11.38;7.15;;;;;;;13.81;100.00;102121.38;5013944;23;20425;-82
2022/06/11 03:28:23;;;;;;;10.15;7.20;;;;;;;13.76;100.00;102121.66;5073470;23;20654;-82
2022/06/11 03:30:49;;;;;;;13.10;6.63;;;;;;;13.82;100.00;102124.81;5013114;28;20026;-82
2022/06/11 03:33:15;;;;;;;12.73;7.40;;;;;;;13.56;100.00;102076.91;5013196;28;20466;-82
2022/06/11 03:35:43;;;;;;;15.73;7.47;;;;;;;13.93;100.00;102115.47;5013133;28;20021;-81
2022/06/11 03:38:09;;;;;;;11.18;6.90;;;;;;;14.12;100.00;102133.47;5012986;28;20022;-83
2022/06/11 03:40:35;;;;;;;12.15;7.47;;;;;;;14.09;99.91;102112.03;5013467;28;20026;-82
2022/06/11 03:43:00;;;;;;;12.68;6.85;;;;;;;14.13;99.36;102106.56;5013249;28;20026;-84
2022/06/11 03:45:27;;;;;;;11.60;7.40;;;;;;;14.30;98.99;102119.41;5013244;28;20063;-87
2022/06/11 03:47:53;;;;;;;11.15;6.85;;;;;;;14.28;97.74;102108.28;5013412;28;20037;-88
2022/06/11 03:50:25;;;;;;;11.15;6.65;;;;;;;14.56;97.83;102143.09;5013205;28;20483;-84
2022/06/11 03:52:51;;;;;;;11.82;7.15;;;;;;;14.45;97.11;102122.06;5013030;28;20041;-87
2022/06/11 03:55:18;;;;;;;8.70;5.95;;;;;;;14.46;96.51;102119.41;5012965;28;20377;-83
2022/06/11 03:57:44;;;;;;;9.88;5.65;;;;;;;14.46;95.95;102114.19;5012961;28;20049;-82
2022/06/11 04:00:13;;;;;;;12.13;5.90;;;;;;;14.75;95.08;102151.47;5012791;28;20077;-84
2022/06/11 04:02:39;;;;;;;9.63;5.53;;;;;;;14.79;94.31;102162.53;4995187;28;20022;-83
2022/06/11 04:05:05;;;;;;;9.57;5.78;;;;;;;14.85;93.25;102162.16;4995475;28;20048;-83
2022/06/11 04:07:32;;;;;;;11.18;5.45;;;;;;;14.52;92.26;102107.78;5012618;28;20026;-84
2022/06/11 04:09:57;;;;;;;12.30;5.50;;;;;;;14.91;91.77;102156.59;5012821;28;20462;-87
2022/06/11 04:12:25;;;;;;;8.43;5.10;;;;;;;14.76;91.98;102121.09;5012977;28;20096;-82
2022/06/11 04:14:50;;;;;;;9.55;5.15;;;;;;;14.91;91.11;102138.38;5012658;28;20030;-84
2022/06/11 04:17:42;;;;;;;10.68;4.85;;;;;;;15.09;91.51;102159.84;5012987;28;20046;-82
2022/06/11 04:20:07;;;;;;;12.95;5.53;;;;;;;15.15;89.83;102170.72;5008552;28;20076;-84
2022/06/11 04:22:33;;;;;;;9.43;5.05;;;;;;;15.13;89.51;102156.13;5012915;28;20105;-82
2022/06/11 04:24:58;;;;;;;13.05;4.20;;;;;;;14.99;88.58;102135.31;5013026;28;20022;-86
2022/06/11 04:27:24;;;;;;;8.43;4.70;;;;;;;14.86;88.12;102109.22;5097807;23;20540;-84
2022/06/11 04:29:55;;;;;;;9.45;4.22;;;;;;;15.02;86.46;102109.09;5012210;28;20061;-88
2022/06/11 04:32:36;;;;;;;14.02;4.53;;;;;;;15.31;85.49;102130.72;5012469;28;20038;-88
2022/06/11 04:35:06;;;;;;;10.90;3.83;;;;;;;15.99;82.46;102178.50;5012616;28;20093;-83
2022/06/11 04:37:34;;;;;;;12.48;4.40;;;;;;;16.57;77.75;102137.31;5015652;28;20354;-86
2022/06/11 04:40:01;;;;;;;8.93;3.50;;;;;;;16.71;75.16;102139.84;5016758;28;20026;-84
2022/06/11 04:42:28;;;;;;;11.55;3.92;;;;;;;16.56;75.48;102173.00;5016370;28;20488;-82
2022/06/11 04:44:54;;;;;;;9.18;3.40;;;;;;;16.30;77.11;102186.91;5016069;28;20520;-83
2022/06/11 04:47:25;;;;;;;10.93;3.10;;;;;;;16.12;76.07;102190.72;5016311;28;20026;-88
2022/06/11 04:49:52;;;;;;;16.42;3.83;;;;;;;16.10;76.72;102192.59;5016430;28;20359;-87
2022/06/11 04:52:19;;;;;;;12.13;2.67;;;;;;;16.03;77.11;102190.41;5016246;28;20104;-88
2022/06/11 04:54:44;;;;;;;12.02;3.25;;;;;;;16.04;75.67;102194.69;5016217;28;20179;-88
2022/06/11 04:57:10;;;;;;;10.00;2.83;;;;;;;16.00;75.95;102197.56;5016138;28;20405;-87
2022/06/11 04:59:36;;;;;;;10.63;3.00;;;;;;;16.06;76.57;102203.22;5015794;28;20025;-87
2022/06/11 05:02:02;;;;;;;11.07;3.47;;;;;;;16.08;74.63;102192.69;5015845;28;20033;-87
2022/06/11 05:04:28;;;;;;;11.38;2.75;;;;;;;16.07;74.17;102164.97;5016217;28;20034;-88
2022/06/11 05:06:54;;;;;;;12.13;3.38;;;;;;;16.18;73.79;102183.34;5016141;28;20167;-88
2022/06/11 05:09:22;;;;;;;11.18;2.70;;;;;;;16.22;72.54;102195.25;5016018;28;20045;-86
2022/06/11 05:11:48;;;;;;;13.57;3.25;;;;;;;16.15;74.08;102165.31;5015981;28;20110;-86
2022/06/11 05:14:13;;;;;;;10.27;2.60;;;;;;;16.27;71.67;102151.47;5015988;28;20033;-81
2022/06/11 05:16:41;;;;;;;11.98;2.95;;;;;;;16.59;72.24;102196.25;5015554;28;20030;-81
2022/06/11 05:19:12;;;;;;;14.38;3.08;;;;;;;16.53;70.81;102177.59;4997894;28;20037;-83
2022/06/11 05:21:38;;;;;;;9.65;2.65;;;;;;;16.81;69.47;102189.63;5015635;28;20036;-82
2022/06/11 05:24:04;;;;;;;13.10;3.00;;;;;;;16.96;70.64;102187.78;5015710;28;20109;-80
2022/06/11 05:26:37;;;;;;;11.65;2.55;;;;;;;16.94;70.11;102200.09;4997954;28;20054;-80
2022/06/11 05:29:05;;;;;;;12.93;2.80;;;;;;;16.59;69.43;102161.53;5015641;28;20031;-82
2022/06/11 05:31:32;;;;;;;11.15;3.22;;;;;;;16.69;70.43;102208.72;5067545;23;20061;-81
2022/06/11 05:33:58;;;;;;;12.10;3.42;;;;;;;16.65;70.11;102205.47;4997460;28;20044;-81
2022/06/11 05:36:23;;;;;;;9.77;3.00;;;;;;;17.96;66.17;102204.19;5015577;28;20109;-80
2022/06/11 05:38:48;;;;;;;11.07;2.92;;;;;;;19.93;60.31;102185.66;5015362;28;20571;-81
2022/06/11 05:41:14;;;;;;;11.02;2.40;;;;;;;21.75;53.51;102181.56;5015418;28;20022;-81
2022/06/11 05:43:39;;;;;;;13.23;2.78;;;;;;;22.95;50.06;102190.75;5015309;28;20034;-80
2022/06/11 05:46:18;;;;;;;9.18;2.75;;;;;;;23.96;49.14;102191.56;5014996;28;20049;-82
2022/06/11 05:48:47;;;;;;;8.60;2.42;;;;;;;22.75;47.61;102168.06;5014822;28;20030;-82
2022/06/11 05:51:16;;;;;;;12.05;2.90;;;;;;;21.77;50.97;102169.09;5015277;28;20072;-83
2022/06/11 05:53:42;;;;;;;11.63;3.78;;;;;;;21.91;49.53;102208.13;5015110;28;20422;-85
2022/06/11 05:56:07;;;;;;;12.55;2.70;;;;;;;22.57;48.44;102181.94;5015122;28;20064;-86
2022/06/11 05:58:38;;;;;;;16.33;2.85;;;;;;;22.55;48.48;102189.16;5014852;28;20034;-88
2022/06/11 06:01:13;;;;;;;9.60;2.60;;;;;;;23.34;45.68;102167.69;5014907;28;20022;-89
2022/06/11 06:03:38;;;;;;;12.65;2.78;;;;;;;24.18;44.49;102203.47;5021323;23;20060;-82
2022/06/11 06:06:04;;;;;;;10.85;2.50;;;;;;;24.86;43.13;102201.00;5014809;28;20105;-85
2022/06/11 06:08:29;;;;;;;11.63;2.95;;;;;;;25.38;42.54;102183.28;5014854;28;20026;-88
2022/06/11 06:10:54;;;;;;;8.25;2.42;;;;;;;26.22;40.46;102190.16;5014700;28;20495;-88
2022/06/11 06:16:07;;;;;;;10.35;2.67;;;;;;;26.31;40.59;102188.34;5014500;28;20087;-82
2022/06/11 06:18:32;;;;;;;8.88;2.63;;;;;;;26.71;39.93;102170.75;5013942;28;20030;-83
2022/06/11 06:20:58;;;;;;;13.77;2.92;;;;;;;27.13;37.87;102204.94;5014500;28;20581;-88
2022/06/11 06:23:23;;;;;;;12.82;2.88;;;;;;;26.91;38.24;102214.41;5014528;28;20030;-85
2022/06/11 06:25:52;;;;;;;11.55;2.92;;;;;;;27.20;39.01;102218.34;5013132;28;20049;-86
2022/06/11 06:28:17;;;;;;;13.07;3.22;;;;;;;27.05;37.58;102186.41;5021508;23;20121;-84
2022/06/11 06:30:45;;;;;;;13.43;3.60;;;;;;;26.01;39.45;102218.97;4994941;28;20121;-84
2022/06/11 06:33:11;;;;;;;13.90;3.22;;;;;;;23.73;43.93;102196.47;4994783;28;20386;-83
2022/06/11 06:35:36;;;;;;;14.20;3.65;;;;;;;22.70;47.53;102223.75;4994757;28;20022;-84
2022/06/11 06:38:02;;;;;;;15.38;3.42;;;;;;;21.76;50.76;102220.84;4994734;28;20084;-83
2022/06/11 06:40:34;;;;;;;16.05;3.45;;;;;;;22.31;50.13;102231.69;4994766;28;20466;-82
2022/06/11 06:42:59;;;;;;;11.32;3.03;;;;;;;22.44;49.81;102234.06;4994836;28;20018;-80
2022/06/11 06:45:24;;;;;;;12.57;3.70;;;;;;;22.25;50.41;102234.09;4994626;28;20096;-79
2022/06/11 06:47:50;;;;;;;13.60;3.17;;;;;;;22.61;49.74;102233.38;4994479;28;20034;-81
2022/06/11 06:50:15;;;;;;;14.63;3.72;;;;;;;23.19;47.89;102198.13;4994336;28;20026;-82
2022/06/11 06:52:41;;;;;;;17.13;3.90;;;;;;;24.79;45.71;102219.31;4994195;28;20109;-86
2022/06/11 06:55:07;;;;;;;14.30;3.85;;;;;;;25.91;42.41;102221.75;4994207;28;20022;-82
2022/06/11 06:57:35;;;;;;;14.93;3.85;;;;;;;24.78;43.65;102215.03;4993960;28;20113;-84
2022/06/11 07:00:03;;;;;;;13.35;3.15;;;;;;;23.76;45.68;102225.19;4993551;28;20109;-84
2022/06/11 07:02:28;;;;;;;13.40;3.70;;;;;;;23.93;45.69;102226.19;4976371;28;20038;-83
2022/06/11 07:04:53;;;;;;;12.60;3.78;;;;;;;24.12;45.06;102231.31;4994280;28;20425;-87
2022/06/11 07:07:19;;;;;;;14.07;3.20;;;;;;;23.81;45.65;102230.84;4976476;28;20045;-87
2022/06/11 07:09:45;;;;;;;17.38;3.85;;;;;;;23.03;48.05;102197.94;4994190;28;20489;-86
2022/06/11 07:12:10;;;;;;;14.70;3.75;;;;;;;23.06;48.87;102234.53;4994050;28;20109;-88
2022/06/11 07:14:36;;;;;;;13.15;3.38;;;;;;;22.65;48.19;102222.53;5007353;23;20053;-88
2022/06/11 07:17:06;;;;;;;16.30;4.20;;;;;;;22.36;52.36;102241.84;5013681;28;20072;-87
2022/06/11 07:19:39;;;;;;;17.15;4.03;;;;;;;21.64;52.20;102242.13;5013817;28;20038;-86
2022/06/11 07:22:11;;;;;;;16.60;3.97;;;;;;;20.85;54.45;102224.34;5013510;28;20489;-87
2022/06/11 07:24:41;;;;;;;13.93;3.47;;;;;;;20.39;56.60;102218.63;5013659;28;20037;-86
2022/06/11 07:27:11;;;;;;;17.83;3.78;;;;;;;20.45;56.33;102226.00;5013296;28;20018;-85
2022/06/11 07:29:43;;;;;;;13.10;3.65;;;;;;;21.25;55.23;102223.56;5013447;28;20101;-85
2022/06/11 07:32:14;;;;;;;18.60;4.18;;;;;;;22.40;53.48;102224.78;5013396;28;20022;-85
2022/06/11 07:34:41;;;;;;;13.45;3.58;;;;;;;23.05;51.47;102225.78;5013366;28;20037;-86
2022/06/11 07:37:06;;;;;;;14.55;3.90;;;;;;;22.95;51.12;102227.63;5013516;28;20079;-84
2022/06/11 07:39:32;;;;;;;15.50;2.85;;;;;;;23.49;51.50;102210.19;5013251;28;20034;-84
2022/06/11 07:41:57;;;;;;;16.02;3.38;;;;;;;23.38;47.90;102189.28;5013150;28;20095;-87
2022/06/11 07:44:23;;;;;;;15.80;3.72;;;;;;;23.00;50.09;102232.44;5013651;28;20473;-86
2022/06/11 07:46:48;;;;;;;15.88;3.33;;;;;;;22.00;51.21;102170.47;5013183;28;20091;-88
2022/06/11 07:49:14;;;;;;;17.27;3.58;;;;;;;21.89;53.86;102201.34;5013220;28;20029;-87
2022/06/11 07:51:39;;;;;;;13.20;3.28;;;;;;;22.04;52.17;102186.84;4994814;28;20038;-87
2022/06/11 07:54:04;;;;;;;11.60;3.63;;;;;;;21.94;55.59;102205.25;5014030;28;20026;-84
2022/06/11 07:56:32;;;;;;;13.48;3.63;;;;;;;21.95;52.89;102232.38;5013127;28;20524;-86
2022/06/11 07:59:01;;;;;;;12.23;3.42;;;;;;;21.57;55.75;102223.44;5012688;28;20044;-87
2022/06/11 08:01:26;;;;;;;14.52;3.58;;;;;;;21.55;54.53;102214.03;5013402;28;20033;-87
2022/06/11 08:03:51;;;;;;;13.60;3.70;;;;;;;21.81;55.92;102238.00;5012694;28;20424;-86
2022/06/11 08:06:17;;;;;;;12.45;3.70;;;;;;;21.86;55.78;102234.00;5012940;28;20029;-87
2022/06/11 08:08:45;;;;;;;12.73;3.60;;;;;;;21.78;52.99;102215.44;5012974;28;20026;-86
2022/06/11 08:11:10;;;;;;;16.70;4.20;;;;;;;20.95;53.10;102153.50;5015404;28;20034;-87
2022/06/11 08:13:43;;;;;;;12.07;3.65;;;;;;;20.40;55.33;102062.84;5031224;23;20060;-89
2022/06/11 08:16:10;;;;;;;14.57;4.13;;;;;;;21.40;56.66;102238.03;5017245;28;20493;-88
2022/06/11 08:18:45;;;;;;;13.93;4.30;;;;;;;21.40;58.98;102245.91;5016789;28;20041;-89
2022/06/11 08:21:10;;;;;;;15.43;4.20;;;;;;;21.33;56.46;102210.63;5016910;28;20022;-90
2022/06/11 08:23:45;;;;;;;13.57;3.50;;;;;;;20.63;58.95;102096.69;5017049;28;20040;-87
2022/06/11 08:26:11;;;;;;;17.38;4.00;;;;;;;20.58;58.77;102098.88;5016993;28;20029;-88
2022/06/11 08:28:36;;;;;;;15.65;3.60;;;;;;;20.95;56.13;102137.75;5016745;28;20025;-88
2022/06/11 08:31:04;;;;;;;14.88;3.67;;;;;;;21.45;55.02;102237.66;5017015;28;20045;-89
2022/06/11 08:33:36;;;;;;;15.65;3.90;;;;;;;21.35;55.99;102208.72;4998255;28;20034;-86
2022/06/11 08:36:10;;;;;;;14.73;3.90;;;;;;;21.12;54.89;102158.09;5016674;28;20116;-85
2022/06/11 08:38:39;;;;;;;14.43;3.75;;;;;;;21.23;54.53;102161.59;5016231;28;20034;-86
2022/06/11 08:41:13;;;;;;;13.93;3.88;;;;;;;20.95;52.52;102089.66;5016743;28;20064;-87
2022/06/11 08:43:42;;;;;;;13.35;3.90;;;;;;;21.42;52.51;102146.75;5016575;28;20029;-87
2022/06/11 08:46:14;;;;;;;15.18;3.75;;;;;;;22.61;52.45;102267.59;5016459;28;20446;-85
2022/06/11 08:48:42;;;;;;;15.27;3.67;;;;;;;22.87;50.96;102261.75;5016727;28;20056;-85
2022/06/11 08:51:11;;;;;;;15.00;3.45;;;;;;;22.73;52.25;102220.03;4998532;28;20029;-87
2022/06/11 08:53:38;;;;;;;15.18;3.78;;;;;;;22.87;51.38;102267.84;5016248;28;20496;-86
2022/06/11 08:56:10;;;;;;;17.27;3.63;;;;;;;22.83;50.20;102252.44;5016830;28;20428;-87
2022/06/11 08:59:36;;;;;;;13.50;3.88;;;;;;;22.87;51.28;102267.03;5015301;28;20065;-89
2022/06/11 09:02:10;;;;;;;14.77;3.85;;;;;;;22.66;51.97;102264.53;4917386;29;20690;-86
2022/06/11 09:05:20;;;;;;;17.00;3.80;;;;;;;22.73;51.81;102264.81;4917397;29;20066;-88
2022/06/11 09:08:03;;;;;;;15.35;3.78;;;;;;;22.78;51.74;102262.56;4879757;29;20041;-88
2022/06/11 09:10:43;;;;;;;16.17;4.07;;;;;;;22.73;52.01;102265.63;4879648;29;20037;-88
2022/06/11 09:13:39;;;;;;;12.35;3.78;;;;;;;22.88;52.90;102252.88;4879791;29;20041;-88
2022/06/11 09:16:27;;;;;;;13.43;3.60;;;;;;;23.38;51.48;102240.19;4879662;29;20045;-85
2022/06/11 09:19:04;;;;;;;12.10;3.38;;;;;;;23.65;52.29;102255.22;4878958;29;20413;-87
2022/06/11 09:21:32;;;;;;;14.48;3.88;;;;;;;23.53;51.23;102261.66;4878973;29;20157;-82
2022/06/11 09:24:12;;;;;;;15.60;4.35;;;;;;;23.39;50.57;102270.03;4879752;29;20125;-87
2022/06/11 09:27:00;;;;;;;16.58;4.45;;;;;;;23.52;52.66;102259.16;4879631;29;20422;-87
2022/06/11 09:29:30;;;;;;;13.90;3.47;;;;;;;23.36;48.62;102257.97;4879758;29;20041;-86
2022/06/11 09:32:05;;;;;;;16.10;3.65;;;;;;;23.39;52.14;102248.94;4879821;29;20089;-87
2022/06/11 09:34:39;;;;;;;13.50;3.83;;;;;;;23.12;51.21;102249.75;4884751;28;20138;-87
2022/06/11 09:37:07;;;;;;;14.68;3.58;;;;;;;23.01;51.76;102257.81;4975347;28;20406;-87
2022/06/11 09:39:40;;;;;;;16.90;3.97;;;;;;;22.70;52.28;102226.41;4974654;28;20038;-87
2022/06/11 09:42:33;;;;;;;14.95;3.50;;;;;;;22.96;52.69;102255.63;4974665;28;20031;-86
2022/06/11 09:45:05;;;;;;;14.93;4.00;;;;;;;22.81;51.06;102259.63;5007431;28;20095;-87
2022/06/11 09:47:59;;;;;;;14.73;3.83;;;;;;;22.73;52.72;102265.63;5015835;28;20495;-87
2022/06/11 09:50:46;;;;;;;13.82;3.65;;;;;;;22.78;52.24;102257.28;4917021;29;20055;-86
2022/06/11 09:53:35;;;;;;;14.85;4.20;;;;;;;22.79;54.02;102269.50;4916866;29;20079;-87
2022/06/11 09:56:06;;;;;;;15.38;3.92;;;;;;;22.82;51.99;102263.97;4916739;29;20492;-82
2022/06/11 09:58:58;;;;;;;14.73;3.65;;;;;;;22.71;52.92;102270.19;4916538;29;20175;-86
2022/06/11 10:01:31;;;;;;;14.68;3.75;;;;;;;22.56;51.72;102256.63;4916545;29;20070;-86
2022/06/11 10:04:19;;;;;;;15.13;4.75;;;;;;;22.90;52.86;102256.19;4916109;29;20535;-88
2022/06/11 10:06:51;;;;;;;14.05;4.10;;;;;;;23.17;53.32;102258.88;4916317;29;20048;-87
2022/06/11 10:09:26;;;;;;;15.13;4.10;;;;;;;23.37;52.21;102266.72;4916439;29;20040;-88
2022/06/11 10:11:58;;;;;;;17.05;4.20;;;;;;;23.66;52.51;102221.78;4914944;29;20483;-86
2022/06/11 10:14:32;;;;;;;18.58;4.40;;;;;;;24.27;51.45;102252.72;4916266;29;20488;-85
2022/06/11 10:17:10;;;;;;;19.60;4.72;;;;;;;24.43;49.86;102247.63;4916282;29;20936;-88
2022/06/11 10:19:53;;;;;;;18.95;4.57;;;;;;;24.47;50.95;102256.03;4916019;29;20099;-89
2022/06/11 10:22:32;;;;;;;16.70;4.70;;;;;;;24.01;49.68;102257.94;4916159;29;20440;-88
2022/06/11 10:25:22;;;;;;;13.50;4.13;;;;;;;23.86;51.69;102259.41;4916451;29;20584;-87
2022/06/11 10:28:13;;;;;;;14.73;3.97;;;;;;;23.87;50.46;102256.63;4987626;28;20054;-90
2022/06/11 10:31:12;;;;;;;15.75;4.45;;;;;;;23.65;48.81;102268.41;4995235;28;20048;-88
2022/06/11 10:34:29;;;;;;;13.75;4.00;;;;;;;23.43;50.18;102268.78;4993893;28;20501;-88
2022/06/11 10:37:19;;;;;;;15.77;3.85;;;;;;;23.23;51.56;102261.94;4944892;23;20031;-89
2022/06/11 10:40:16;;;;;;;14.55;3.80;;;;;;;23.11;51.01;102264.75;4974553;28;20081;-86
2022/06/11 10:43:14;;;;;;;16.38;3.65;;;;;;;22.42;51.22;102169.34;4975125;28;20463;-85
2022/06/11 10:45:47;;;;;;;14.80;3.38;;;;;;;22.34;52.02;102159.56;4915345;29;20047;-85
2022/06/11 10:48:32;;;;;;;13.93;3.70;;;;;;;22.01;50.34;102101.09;4915687;29;20123;-88
2022/06/11 10:51:14;;;;;;;14.55;3.88;;;;;;;22.12;50.79;102133.53;4915435;29;20087;-89
2022/06/11 10:54:07;;;;;;;14.38;3.92;;;;;;;22.90;51.16;102258.81;4915745;29;20039;-89
2022/06/11 10:56:57;;;;;;;14.48;3.47;;;;;;;22.58;51.57;102203.84;4915818;29;20072;-89
2022/06/11 10:59:42;;;;;;;12.55;3.50;;;;;;;22.40;50.70;102197.63;4915494;29;20032;-89
2022/06/11 11:02:57;;;;;;;14.52;3.58;;;;;;;22.54;51.33;102220.91;4915403;28;20043;-89
2022/06/11 11:05:22;;;;;;;14.30;3.88;;;;;;;22.33;50.81;102163.16;4876792;29;20037;-90
2022/06/11 11:07:54;;;;;;;16.00;3.80;;;;;;;22.98;50.95;102261.56;4899452;29;20640;-90
2022/06/11 11:10:45;;;;;;;12.02;3.42;;;;;;;22.51;51.51;102176.41;4915601;29;20413;-91
2022/06/11 11:13:32;;;;;;;17.50;4.13;;;;;;;22.68;50.49;102177.47;4915265;29;20032;-89
2022/06/11 11:16:40;;;;;;;13.07;3.67;;;;;;;22.92;51.92;102190.22;4914993;29;20136;-89
2022/06/11 11:19:23;;;;;;;13.80;3.97;;;;;;;23.19;50.92;102195.47;4915353;29;20072;-89
2022/06/11 11:21:56;;;;;;;15.07;4.63;;;;;;;23.12;50.23;102191.78;4924415;28;20042;-89
2022/06/11 11:24:47;;;;;;;14.30;3.35;;;;;;;22.32;50.79;102083.38;4974594;28;20097;-90
2022/06/11 11:27:46;;;;;;;15.10;3.72;;;;;;;23.29;49.84;102240.25;4974780;28;20038;-90
2022/06/11 11:30:41;;;;;;;13.10;3.58;;;;;;;22.95;49.54;102246.06;4974475;28;20029;-90
2022/06/11 11:33:34;;;;;;;11.95;3.70;;;;;;;23.02;51.33;102248.97;4953049;29;20070;-90
2022/06/11 11:36:21;;;;;;;14.90;3.60;;;;;;;22.50;51.67;102186.09;4952946;28;20059;-89
2022/06/11 11:39:13;;;;;;;15.35;3.95;;;;;;;21.97;50.66;102076.06;4937081;29;20044;-88
2022/06/11 11:41:46;;;;;;;11.38;3.50;;;;;;;23.10;50.75;102249.06;4932642;29;20550;-84
2022/06/11 11:44:17;;;;;;;13.52;3.83;;;;;;;23.04;49.79;102232.03;4933458;29;20083;-85
2022/06/11 11:46:48;;;;;;;12.45;3.75;;;;;;;23.28;50.19;102243.88;4917510;29;20391;-88
2022/06/11 11:49:20;;;;;;;;;;;;;;;23.43;48.70;102239.78;4934039;29;20038;-87
2022/06/11 11:51:46;;;;;;;15.55;3.65;;;;;;;23.54;48.47;102204.47;4933351;29;19915;-85
2022/06/11 11:54:19;;;;;;;9.85;2.80;;;;;;;23.81;46.63;102224.75;4933564;29;20086;-88